sensor_id;sensor_type;location;lat;lon;timestamp;temperature;humidity
27544;DHT22;17996;51.056;3.656;2023-04-16T00:02:10;8.80;99.90
27544;DHT22;17996;51.056;3.656;2023-04-16T00:04:36;8.70;99.90
27544;DHT22;17996;51.056;3.656;2023-04-16T00:07:02;8.60;99.90
27544;DHT22;17996;51.056;3.656;2023-04-16T00:09:28;8.60;99.90
27544;DHT22;17996;51.056;3.656;2023-04-16T00:11:55;8.70;99.90
27544;DHT22;17996;51.056;3.656;2023-04-16T00:14:21;8.60;99.90
27544;DHT22;17996;51.056;3.656;2023-04-16T00:16:46;8.60;99.90
27544;DHT22;17996;51.056;3.656;2023-04-16T00:19:12;8.60;99.90
27544;DHT22;17996;51.056;3.656;2023-04-16T00:21:38;8.80;99.90
27544;DHT22;17996;51.056;3.656;2023-04-16T00:24:04;8.90;99.90
27544;DHT22;17996;51.056;3.656;2023-04-16T00:26:30;8.70;99.90
27544;DHT22;17996;51.056;3.656;2023-04-16T00:28:55;8.60;99.90
27544;DHT22;17996;51.056;3.656;2023-04-16T00:31:29;8.60;99.90
27544;DHT22;17996;51.056;3.656;2023-04-16T00:33:55;8.80;99.90
27544;DHT22;17996;51.056;3.656;2023-04-16T00:36:22;8.70;99.90
27544;DHT22;17996;51.056;3.656;2023-04-16T00:38:48;8.90;99.90
27544;DHT22;17996;51.056;3.656;2023-04-16T00:41:14;8.80;99.90
27544;DHT22;17996;51.056;3.656;2023-04-16T00:43:39;9.00;99.90
27544;DHT22;17996;51.056;3.656;2023-04-16T00:46:05;9.00;99.90
27544;DHT22;17996;51.056;3.656;2023-04-16T00:48:32;9.00;99.90
27544;DHT22;17996;51.056;3.656;2023-04-16T00:50:58;8.90;99.90
27544;DHT22;17996;51.056;3.656;2023-04-16T00:53:26;8.70;99.90
27544;DHT22;17996;51.056;3.656;2023-04-16T00:55:52;8.80;99.90
27544;DHT22;17996;51.056;3.656;2023-04-16T00:58:20;8.70;99.90
27544;DHT22;17996;51.056;3.656;2023-04-16T01:00:46;8.70;99.90
27544;DHT22;17996;51.056;3.656;2023-04-16T01:03:11;8.70;99.90
27544;DHT22;17996;51.056;3.656;2023-04-16T01:05:37;8.60;99.90
27544;DHT22;17996;51.056;3.656;2023-04-16T01:08:03;8.90;99.90
27544;DHT22;17996;51.056;3.656;2023-04-16T01:10:29;8.80;99.90
27544;DHT22;17996;51.056;3.656;2023-04-16T01:12:55;8.80;99.90
27544;DHT22;17996;51.056;3.656;2023-04-16T01:15:21;8.80;99.90
27544;DHT22;17996;51.056;3.656;2023-04-16T01:17:46;8.70;99.90
27544;DHT22;17996;51.056;3.656;2023-04-16T01:20:13;8.80;99.90
27544;DHT22;17996;51.056;3.656;2023-04-16T01:22:38;8.80;99.90
27544;DHT22;17996;51.056;3.656;2023-04-16T01:25:04;8.90;99.90
27544;DHT22;17996;51.056;3.656;2023-04-16T01:27:30;8.80;99.90
27544;DHT22;17996;51.056;3.656;2023-04-16T01:29:56;9.00;99.90
27544;DHT22;17996;51.056;3.656;2023-04-16T01:32:22;8.90;99.90
27544;DHT22;17996;51.056;3.656;2023-04-16T01:34:48;9.10;99.90
27544;DHT22;17996;51.056;3.656;2023-04-16T01:37:14;8.90;99.90
27544;DHT22;17996;51.056;3.656;2023-04-16T01:39:40;9.00;99.90
27544;DHT22;17996;51.056;3.656;2023-04-16T01:42:05;8.90;99.90
27544;DHT22;17996;51.056;3.656;2023-04-16T01:44:31;9.00;99.90
27544;DHT22;17996;51.056;3.656;2023-04-16T01:46:56;9.00;99.90
27544;DHT22;17996;51.056;3.656;2023-04-16T01:49:22;9.00;99.90
27544;DHT22;17996;51.056;3.656;2023-04-16T01:51:48;9.00;99.90
27544;DHT22;17996;51.056;3.656;2023-04-16T01:54:13;8.90;99.90
27544;DHT22;17996;51.056;3.656;2023-04-16T01:56:39;9.00;99.90
27544;DHT22;17996;51.056;3.656;2023-04-16T01:59:05;8.90;99.90
27544;DHT22;17996;51.056;3.656;2023-04-16T02:01:31;8.90;99.90
27544;DHT22;17996;51.056;3.656;2023-04-16T02:03:58;8.90;99.90
27544;DHT22;17996;51.056;3.656;2023-04-16T02:06:23;9.00;99.90
27544;DHT22;17996;51.056;3.656;2023-04-16T02:08:49;8.90;99.90
27544;DHT22;17996;51.056;3.656;2023-04-16T02:11:16;8.80;99.90
27544;DHT22;17996;51.056;3.656;2023-04-16T02:13:41;8.90;99.90
27544;DHT22;17996;51.056;3.656;2023-04-16T02:16:07;9.00;99.90
27544;DHT22;17996;51.056;3.656;2023-04-16T02:18:33;9.00;99.90
27544;DHT22;17996;51.056;3.656;2023-04-16T02:20:59;8.90;99.90
27544;DHT22;17996;51.056;3.656;2023-04-16T02:23:24;8.90;99.90
27544;DHT22;17996;51.056;3.656;2023-04-16T02:25:50;9.00;99.90
27544;DHT22;17996;51.056;3.656;2023-04-16T02:28:16;8.90;99.90
27544;DHT22;17996;51.056;3.656;2023-04-16T02:30:42;8.80;99.90
27544;DHT22;17996;51.056;3.656;2023-04-16T02:33:09;8.90;99.90
27544;DHT22;17996;51.056;3.656;2023-04-16T02:35:36;8.80;99.90
27544;DHT22;17996;51.056;3.656;2023-04-16T02:38:03;8.80;99.90
27544;DHT22;17996;51.056;3.656;2023-04-16T02:40:29;8.80;99.90
27544;DHT22;17996;51.056;3.656;2023-04-16T02:42:55;8.90;99.90
27544;DHT22;17996;51.056;3.656;2023-04-16T02:45:22;8.80;99.90
27544;DHT22;17996;51.056;3.656;2023-04-16T02:47:48;8.80;99.90
27544;DHT22;17996;51.056;3.656;2023-04-16T02:50:14;9.00;99.90
27544;DHT22;17996;51.056;3.656;2023-04-16T02:52:40;8.90;99.90
27544;DHT22;17996;51.056;3.656;2023-04-16T02:55:06;8.80;99.90
27544;DHT22;17996;51.056;3.656;2023-04-16T02:57:33;8.90;99.90
27544;DHT22;17996;51.056;3.656;2023-04-16T02:59:58;9.10;99.90
27544;DHT22;17996;51.056;3.656;2023-04-16T03:02:24;8.80;99.90
27544;DHT22;17996;51.056;3.656;2023-04-16T03:04:50;8.80;99.90
27544;DHT22;17996;51.056;3.656;2023-04-16T03:07:16;8.80;99.90
27544;DHT22;17996;51.056;3.656;2023-04-16T03:09:42;8.80;99.90
27544;DHT22;17996;51.056;3.656;2023-04-16T03:12:08;8.80;99.90
27544;DHT22;17996;51.056;3.656;2023-04-16T03:14:34;9.00;99.90
27544;DHT22;17996;51.056;3.656;2023-04-16T03:17:00;8.90;99.90
27544;DHT22;17996;51.056;3.656;2023-04-16T03:19:25;9.00;99.90
27544;DHT22;17996;51.056;3.656;2023-04-16T03:21:51;8.90;99.90
27544;DHT22;17996;51.056;3.656;2023-04-16T03:24:17;8.90;99.90
27544;DHT22;17996;51.056;3.656;2023-04-16T03:26:42;9.10;99.90
27544;DHT22;17996;51.056;3.656;2023-04-16T03:29:09;9.00;99.90
27544;DHT22;17996;51.056;3.656;2023-04-16T03:31:35;9.30;99.90
27544;DHT22;17996;51.056;3.656;2023-04-16T03:34:00;9.00;99.90
27544;DHT22;17996;51.056;3.656;2023-04-16T03:36:26;9.20;99.90
27544;DHT22;17996;51.056;3.656;2023-04-16T03:38:52;9.00;99.90
27544;DHT22;17996;51.056;3.656;2023-04-16T03:41:17;9.20;99.90
27544;DHT22;17996;51.056;3.656;2023-04-16T03:43:43;9.00;99.90
27544;DHT22;17996;51.056;3.656;2023-04-16T03:46:09;8.90;99.90
27544;DHT22;17996;51.056;3.656;2023-04-16T03:48:36;9.00;99.90
27544;DHT22;17996;51.056;3.656;2023-04-16T03:51:02;8.90;99.90
27544;DHT22;17996;51.056;3.656;2023-04-16T03:53:27;8.90;99.90
27544;DHT22;17996;51.056;3.656;2023-04-16T03:55:53;9.00;99.90
27544;DHT22;17996;51.056;3.656;2023-04-16T03:58:19;8.90;99.90
27544;DHT22;17996;51.056;3.656;2023-04-16T04:00:45;8.90;99.90
27544;DHT22;17996;51.056;3.656;2023-04-16T04:03:11;9.00;99.90
27544;DHT22;17996;51.056;3.656;2023-04-16T04:05:41;8.90;99.90
27544;DHT22;17996;51.056;3.656;2023-04-16T04:08:07;9.00;99.90
27544;DHT22;17996;51.056;3.656;2023-04-16T04:10:34;8.80;99.90
27544;DHT22;17996;51.056;3.656;2023-04-16T04:13:04;8.90;99.90
27544;DHT22;17996;51.056;3.656;2023-04-16T04:15:30;8.80;99.90
27544;DHT22;17996;51.056;3.656;2023-04-16T04:17:56;8.90;99.90
27544;DHT22;17996;51.056;3.656;2023-04-16T04:20:22;9.00;99.90
27544;DHT22;17996;51.056;3.656;2023-04-16T04:22:49;8.90;99.90
27544;DHT22;17996;51.056;3.656;2023-04-16T04:25:15;9.00;99.90
27544;DHT22;17996;51.056;3.656;2023-04-16T04:27:41;8.90;99.90
27544;DHT22;17996;51.056;3.656;2023-04-16T04:30:07;9.00;99.90
27544;DHT22;17996;51.056;3.656;2023-04-16T04:32:33;8.90;99.90
27544;DHT22;17996;51.056;3.656;2023-04-16T04:35:00;8.90;99.90
27544;DHT22;17996;51.056;3.656;2023-04-16T04:37:26;8.90;99.90
27544;DHT22;17996;51.056;3.656;2023-04-16T04:39:51;9.10;99.90
27544;DHT22;17996;51.056;3.656;2023-04-16T04:42:18;9.00;99.90
27544;DHT22;17996;51.056;3.656;2023-04-16T04:44:44;8.80;99.90
27544;DHT22;17996;51.056;3.656;2023-04-16T04:47:09;9.00;99.90
27544;DHT22;17996;51.056;3.656;2023-04-16T04:49:35;9.10;99.90
27544;DHT22;17996;51.056;3.656;2023-04-16T04:52:01;9.00;99.90
27544;DHT22;17996;51.056;3.656;2023-04-16T04:54:30;8.90;99.90
27544;DHT22;17996;51.056;3.656;2023-04-16T04:56:56;9.00;99.90
27544;DHT22;17996;51.056;3.656;2023-04-16T04:59:22;8.80;99.90
27544;DHT22;17996;51.056;3.656;2023-04-16T05:01:48;9.00;99.90
27544;DHT22;17996;51.056;3.656;2023-04-16T05:04:14;8.80;99.90
27544;DHT22;17996;51.056;3.656;2023-04-16T05:06:40;8.80;99.90
27544;DHT22;17996;51.056;3.656;2023-04-16T05:09:06;9.00;99.90
27544;DHT22;17996;51.056;3.656;2023-04-16T05:11:39;8.90;99.90
27544;DHT22;17996;51.056;3.656;2023-04-16T05:14:05;9.00;99.90
27544;DHT22;17996;51.056;3.656;2023-04-16T05:16:31;9.00;99.90
27544;DHT22;17996;51.056;3.656;2023-04-16T05:18:57;9.00;99.90
27544;DHT22;17996;51.056;3.656;2023-04-16T05:21:23;8.90;99.90
27544;DHT22;17996;51.056;3.656;2023-04-16T05:23:49;9.10;99.90
27544;DHT22;17996;51.056;3.656;2023-04-16T05:26:15;9.10;99.90
27544;DHT22;17996;51.056;3.656;2023-04-16T05:28:40;8.90;99.90
27544;DHT22;17996;51.056;3.656;2023-04-16T05:31:06;9.00;99.90
27544;DHT22;17996;51.056;3.656;2023-04-16T05:33:32;9.10;99.90
27544;DHT22;17996;51.056;3.656;2023-04-16T05:35:57;9.00;99.90
27544;DHT22;17996;51.056;3.656;2023-04-16T05:38:23;9.20;99.90
27544;DHT22;17996;51.056;3.656;2023-04-16T05:40:48;9.00;99.90
27544;DHT22;17996;51.056;3.656;2023-04-16T05:43:14;9.20;99.90
27544;DHT22;17996;51.056;3.656;2023-04-16T05:45:40;9.10;99.90
27544;DHT22;17996;51.056;3.656;2023-04-16T05:48:07;9.00;99.90
27544;DHT22;17996;51.056;3.656;2023-04-16T05:50:36;9.30;99.90
27544;DHT22;17996;51.056;3.656;2023-04-16T05:53:04;9.10;99.90
27544;DHT22;17996;51.056;3.656;2023-04-16T05:55:30;9.10;99.90
27544;DHT22;17996;51.056;3.656;2023-04-16T05:57:56;9.00;99.90
27544;DHT22;17996;51.056;3.656;2023-04-16T06:00:22;9.00;99.90
27544;DHT22;17996;51.056;3.656;2023-04-16T06:02:48;9.10;99.90
27544;DHT22;17996;51.056;3.656;2023-04-16T06:05:15;9.20;99.90
27544;DHT22;17996;51.056;3.656;2023-04-16T06:07:40;9.10;99.90
27544;DHT22;17996;51.056;3.656;2023-04-16T06:10:06;9.30;99.90
27544;DHT22;17996;51.056;3.656;2023-04-16T06:12:32;9.20;99.90
27544;DHT22;17996;51.056;3.656;2023-04-16T06:14:59;9.30;99.90
27544;DHT22;17996;51.056;3.656;2023-04-16T06:17:24;9.30;99.90
27544;DHT22;17996;51.056;3.656;2023-04-16T06:19:51;9.30;99.90
27544;DHT22;17996;51.056;3.656;2023-04-16T06:22:17;9.40;99.90
27544;DHT22;17996;51.056;3.656;2023-04-16T06:24:43;9.30;99.90
27544;DHT22;17996;51.056;3.656;2023-04-16T06:27:08;9.40;99.90
27544;DHT22;17996;51.056;3.656;2023-04-16T06:29:34;9.50;99.90
27544;DHT22;17996;51.056;3.656;2023-04-16T06:32:01;9.30;99.90
27544;DHT22;17996;51.056;3.656;2023-04-16T06:34:28;9.40;99.90
27544;DHT22;17996;51.056;3.656;2023-04-16T06:36:54;9.30;99.90
27544;DHT22;17996;51.056;3.656;2023-04-16T06:39:19;9.50;99.90
27544;DHT22;17996;51.056;3.656;2023-04-16T06:41:48;9.40;99.90
27544;DHT22;17996;51.056;3.656;2023-04-16T06:44:14;9.30;99.90
27544;DHT22;17996;51.056;3.656;2023-04-16T06:46:40;9.40;99.90
27544;DHT22;17996;51.056;3.656;2023-04-16T06:49:05;9.40;99.90
27544;DHT22;17996;51.056;3.656;2023-04-16T06:51:32;9.50;99.90
27544;DHT22;17996;51.056;3.656;2023-04-16T06:53:57;9.40;99.90
27544;DHT22;17996;51.056;3.656;2023-04-16T06:56:23;9.50;99.90
27544;DHT22;17996;51.056;3.656;2023-04-16T06:58:49;9.50;99.90
27544;DHT22;17996;51.056;3.656;2023-04-16T07:01:16;9.70;99.90
27544;DHT22;17996;51.056;3.656;2023-04-16T07:03:42;9.70;99.90
27544;DHT22;17996;51.056;3.656;2023-04-16T07:06:08;9.90;99.90
27544;DHT22;17996;51.056;3.656;2023-04-16T07:08:33;9.70;99.90
27544;DHT22;17996;51.056;3.656;2023-04-16T07:10:59;9.80;99.90
27544;DHT22;17996;51.056;3.656;2023-04-16T07:13:25;9.70;99.90
27544;DHT22;17996;51.056;3.656;2023-04-16T07:15:50;9.70;99.90
27544;DHT22;17996;51.056;3.656;2023-04-16T07:18:16;9.80;99.90
27544;DHT22;17996;51.056;3.656;2023-04-16T07:20:42;9.90;99.90
27544;DHT22;17996;51.056;3.656;2023-04-16T07:23:07;9.80;99.90
27544;DHT22;17996;51.056;3.656;2023-04-16T07:25:33;10.00;99.90
27544;DHT22;17996;51.056;3.656;2023-04-16T07:27:59;10.00;99.90
27544;DHT22;17996;51.056;3.656;2023-04-16T07:30:24;10.00;99.90
27544;DHT22;17996;51.056;3.656;2023-04-16T07:32:50;9.80;99.90
27544;DHT22;17996;51.056;3.656;2023-04-16T07:35:16;9.80;99.90
27544;DHT22;17996;51.056;3.656;2023-04-16T07:37:41;9.80;99.90
27544;DHT22;17996;51.056;3.656;2023-04-16T07:40:08;9.90;99.90
27544;DHT22;17996;51.056;3.656;2023-04-16T07:42:34;10.00;99.90
27544;DHT22;17996;51.056;3.656;2023-04-16T07:44:59;10.00;99.90
27544;DHT22;17996;51.056;3.656;2023-04-16T07:47:25;9.90;99.90
27544;DHT22;17996;51.056;3.656;2023-04-16T07:49:53;9.90;99.90
27544;DHT22;17996;51.056;3.656;2023-04-16T07:52:19;9.80;99.90
27544;DHT22;17996;51.056;3.656;2023-04-16T07:54:44;9.80;99.90
27544;DHT22;17996;51.056;3.656;2023-04-16T07:57:10;10.00;99.90
27544;DHT22;17996;51.056;3.656;2023-04-16T07:59:36;9.80;99.90
27544;DHT22;17996;51.056;3.656;2023-04-16T08:02:03;9.80;99.90
27544;DHT22;17996;51.056;3.656;2023-04-16T08:04:28;10.10;99.90
27544;DHT22;17996;51.056;3.656;2023-04-16T08:06:54;10.00;99.90
27544;DHT22;17996;51.056;3.656;2023-04-16T08:09:22;10.10;99.90
27544;DHT22;17996;51.056;3.656;2023-04-16T08:11:48;10.30;99.90
27544;DHT22;17996;51.056;3.656;2023-04-16T08:14:15;10.40;99.90
27544;DHT22;17996;51.056;3.656;2023-04-16T08:16:41;10.40;99.90
27544;DHT22;17996;51.056;3.656;2023-04-16T08:19:07;10.50;99.90
27544;DHT22;17996;51.056;3.656;2023-04-16T08:21:33;10.60;99.90
27544;DHT22;17996;51.056;3.656;2023-04-16T08:23:58;10.50;99.90
27544;DHT22;17996;51.056;3.656;2023-04-16T08:26:24;10.50;99.90
27544;DHT22;17996;51.056;3.656;2023-04-16T08:28:50;10.30;99.90
27544;DHT22;17996;51.056;3.656;2023-04-16T08:31:16;10.30;99.90
27544;DHT22;17996;51.056;3.656;2023-04-16T08:33:42;10.30;99.90
27544;DHT22;17996;51.056;3.656;2023-04-16T08:36:08;10.20;99.90
27544;DHT22;17996;51.056;3.656;2023-04-16T08:38:33;10.30;99.90
27544;DHT22;17996;51.056;3.656;2023-04-16T08:41:02;10.40;99.90
27544;DHT22;17996;51.056;3.656;2023-04-16T08:43:32;10.40;99.90
27544;DHT22;17996;51.056;3.656;2023-04-16T08:45:59;10.40;99.90
27544;DHT22;17996;51.056;3.656;2023-04-16T08:48:31;10.60;99.90
27544;DHT22;17996;51.056;3.656;2023-04-16T08:51:00;10.30;99.90
27544;DHT22;17996;51.056;3.656;2023-04-16T08:53:38;10.30;99.90
27544;DHT22;17996;51.056;3.656;2023-04-16T08:56:10;10.30;99.90
27544;DHT22;17996;51.056;3.656;2023-04-16T08:58:37;10.30;99.90
27544;DHT22;17996;51.056;3.656;2023-04-16T09:01:05;10.30;99.90
27544;DHT22;17996;51.056;3.656;2023-04-16T09:03:31;10.40;99.90
27544;DHT22;17996;51.056;3.656;2023-04-16T09:05:57;10.40;99.90
27544;DHT22;17996;51.056;3.656;2023-04-16T09:08:28;10.30;99.90
27544;DHT22;17996;51.056;3.656;2023-04-16T09:10:55;10.40;99.90
27544;DHT22;17996;51.056;3.656;2023-04-16T09:13:22;10.60;99.90
27544;DHT22;17996;51.056;3.656;2023-04-16T09:15:54;10.60;99.90
27544;DHT22;17996;51.056;3.656;2023-04-16T09:18:23;10.70;99.90
27544;DHT22;17996;51.056;3.656;2023-04-16T09:20:50;10.90;99.90
27544;DHT22;17996;51.056;3.656;2023-04-16T09:23:16;10.90;99.90
27544;DHT22;17996;51.056;3.656;2023-04-16T09:25:42;11.00;99.90
27544;DHT22;17996;51.056;3.656;2023-04-16T09:28:11;11.00;99.90
27544;DHT22;17996;51.056;3.656;2023-04-16T09:30:37;11.30;99.90
27544;DHT22;17996;51.056;3.656;2023-04-16T09:33:15;11.40;99.90
27544;DHT22;17996;51.056;3.656;2023-04-16T09:35:45;11.40;99.90
27544;DHT22;17996;51.056;3.656;2023-04-16T09:38:12;11.50;99.90
27544;DHT22;17996;51.056;3.656;2023-04-16T09:40:37;11.50;99.90
27544;DHT22;17996;51.056;3.656;2023-04-16T09:43:10;11.50;99.90
27544;DHT22;17996;51.056;3.656;2023-04-16T09:45:53;11.80;99.90
27544;DHT22;17996;51.056;3.656;2023-04-16T09:48:32;12.10;99.90
27544;DHT22;17996;51.056;3.656;2023-04-16T09:50:58;12.20;99.90
27544;DHT22;17996;51.056;3.656;2023-04-16T09:53:28;12.00;99.90
27544;DHT22;17996;51.056;3.656;2023-04-16T09:56:03;11.90;99.90
27544;DHT22;17996;51.056;3.656;2023-04-16T09:58:29;11.90;99.90
27544;DHT22;17996;51.056;3.656;2023-04-16T10:01:01;11.90;99.90
27544;DHT22;17996;51.056;3.656;2023-04-16T10:03:34;12.30;99.90
27544;DHT22;17996;51.056;3.656;2023-04-16T10:06:07;12.30;99.90
27544;DHT22;17996;51.056;3.656;2023-04-16T10:08:34;12.30;99.90
27544;DHT22;17996;51.056;3.656;2023-04-16T10:11:01;12.40;99.90
27544;DHT22;17996;51.056;3.656;2023-04-16T10:13:27;12.30;99.90
27544;DHT22;17996;51.056;3.656;2023-04-16T10:15:55;12.20;99.90
27544;DHT22;17996;51.056;3.656;2023-04-16T10:18:22;12.10;99.90
27544;DHT22;17996;51.056;3.656;2023-04-16T10:20:49;12.40;99.90
27544;DHT22;17996;51.056;3.656;2023-04-16T10:23:16;12.50;99.90
27544;DHT22;17996;51.056;3.656;2023-04-16T10:25:42;12.40;99.90
27544;DHT22;17996;51.056;3.656;2023-04-16T10:28:09;12.40;99.90
27544;DHT22;17996;51.056;3.656;2023-04-16T10:30:44;12.50;99.90
27544;DHT22;17996;51.056;3.656;2023-04-16T10:33:20;12.70;99.90
27544;DHT22;17996;51.056;3.656;2023-04-16T10:35:46;12.90;99.90
27544;DHT22;17996;51.056;3.656;2023-04-16T10:38:27;12.80;99.90
27544;DHT22;17996;51.056;3.656;2023-04-16T10:41:01;12.70;99.90
27544;DHT22;17996;51.056;3.656;2023-04-16T10:43:30;12.90;99.90
27544;DHT22;17996;51.056;3.656;2023-04-16T10:46:32;12.70;99.90
27544;DHT22;17996;51.056;3.656;2023-04-16T10:49:02;12.80;99.90
27544;DHT22;17996;51.056;3.656;2023-04-16T10:51:37;12.90;99.90
27544;DHT22;17996;51.056;3.656;2023-04-16T10:54:19;12.60;99.90
27544;DHT22;17996;51.056;3.656;2023-04-16T10:56:46;12.60;99.90
27544;DHT22;17996;51.056;3.656;2023-04-16T10:59:16;12.60;99.90
27544;DHT22;17996;51.056;3.656;2023-04-16T11:01:43;12.50;99.90
27544;DHT22;17996;51.056;3.656;2023-04-16T11:07:21;12.60;99.90
27544;DHT22;17996;51.056;3.656;2023-04-16T11:10:01;12.90;99.90
27544;DHT22;17996;51.056;3.656;2023-04-16T11:15:03;13.00;99.90
27544;DHT22;17996;51.056;3.656;2023-04-16T11:17:38;12.70;99.90
27544;DHT22;17996;51.056;3.656;2023-04-16T11:20:07;12.80;99.90
27544;DHT22;17996;51.056;3.656;2023-04-16T11:22:38;12.80;99.90
27544;DHT22;17996;51.056;3.656;2023-04-16T11:25:03;12.60;99.90
27544;DHT22;17996;51.056;3.656;2023-04-16T11:27:30;12.60;99.90
27544;DHT22;17996;51.056;3.656;2023-04-16T11:30:06;12.50;99.90
27544;DHT22;17996;51.056;3.656;2023-04-16T11:32:36;12.60;99.90
27544;DHT22;17996;51.056;3.656;2023-04-16T11:35:16;12.80;99.90
27544;DHT22;17996;51.056;3.656;2023-04-16T11:37:44;12.90;99.90
27544;DHT22;17996;51.056;3.656;2023-04-16T11:40:10;13.00;99.90
27544;DHT22;17996;51.056;3.656;2023-04-16T11:42:38;13.00;99.90
27544;DHT22;17996;51.056;3.656;2023-04-16T11:45:06;13.00;99.90
27544;DHT22;17996;51.056;3.656;2023-04-16T11:47:48;12.90;99.90
27544;DHT22;17996;51.056;3.656;2023-04-16T11:50:18;13.10;99.90
27544;DHT22;17996;51.056;3.656;2023-04-16T11:52:46;12.90;99.90
27544;DHT22;17996;51.056;3.656;2023-04-16T11:55:12;12.90;99.90
27544;DHT22;17996;51.056;3.656;2023-04-16T11:57:38;13.00;99.90
27544;DHT22;17996;51.056;3.656;2023-04-16T12:00:06;13.10;99.90
27544;DHT22;17996;51.056;3.656;2023-04-16T12:02:48;13.40;99.90
27544;DHT22;17996;51.056;3.656;2023-04-16T12:05:37;13.40;99.90
27544;DHT22;17996;51.056;3.656;2023-04-16T12:08:10;13.60;99.90
27544;DHT22;17996;51.056;3.656;2023-04-16T12:10:56;13.70;99.90
27544;DHT22;17996;51.056;3.656;2023-04-16T12:13:26;13.80;99.90
27544;DHT22;17996;51.056;3.656;2023-04-16T12:15:56;13.60;99.90
27544;DHT22;17996;51.056;3.656;2023-04-16T12:18:25;13.50;99.90
27544;DHT22;17996;51.056;3.656;2023-04-16T12:20:54;13.30;99.90
27544;DHT22;17996;51.056;3.656;2023-04-16T12:23:27;13.30;99.90
27544;DHT22;17996;51.056;3.656;2023-04-16T12:25:55;13.30;99.90
27544;DHT22;17996;51.056;3.656;2023-04-16T12:30:52;13.30;99.90
27544;DHT22;17996;51.056;3.656;2023-04-16T12:33:19;13.20;99.90
27544;DHT22;17996;51.056;3.656;2023-04-16T12:35:46;13.40;99.90
27544;DHT22;17996;51.056;3.656;2023-04-16T12:38:18;13.50;99.90
27544;DHT22;17996;51.056;3.656;2023-04-16T12:40:44;13.70;99.90
27544;DHT22;17996;51.056;3.656;2023-04-16T12:43:10;13.60;99.90
27544;DHT22;17996;51.056;3.656;2023-04-16T12:45:37;13.70;99.90
27544;DHT22;17996;51.056;3.656;2023-04-16T12:48:03;13.90;99.90
27544;DHT22;17996;51.056;3.656;2023-04-16T12:50:30;13.90;99.90
27544;DHT22;17996;51.056;3.656;2023-04-16T12:52:57;14.00;99.90
27544;DHT22;17996;51.056;3.656;2023-04-16T12:55:23;14.00;99.90
27544;DHT22;17996;51.056;3.656;2023-04-16T12:57:50;13.90;99.90
27544;DHT22;17996;51.056;3.656;2023-04-16T13:00:20;13.80;99.90
27544;DHT22;17996;51.056;3.656;2023-04-16T13:02:48;13.80;99.90
27544;DHT22;17996;51.056;3.656;2023-04-16T13:05:19;13.80;99.90
27544;DHT22;17996;51.056;3.656;2023-04-16T13:07:45;13.70;99.90
27544;DHT22;17996;51.056;3.656;2023-04-16T13:10:12;13.70;99.90
27544;DHT22;17996;51.056;3.656;2023-04-16T13:12:38;13.50;99.90
27544;DHT22;17996;51.056;3.656;2023-04-16T13:15:04;13.50;99.90
27544;DHT22;17996;51.056;3.656;2023-04-16T13:17:29;13.40;99.90
27544;DHT22;17996;51.056;3.656;2023-04-16T13:19:56;13.40;99.90
27544;DHT22;17996;51.056;3.656;2023-04-16T13:22:23;13.60;99.90
27544;DHT22;17996;51.056;3.656;2023-04-16T13:24:49;13.70;99.90
27544;DHT22;17996;51.056;3.656;2023-04-16T13:27:17;13.50;99.90
27544;DHT22;17996;51.056;3.656;2023-04-16T13:29:43;13.70;99.90
27544;DHT22;17996;51.056;3.656;2023-04-16T13:32:09;13.90;99.90
27544;DHT22;17996;51.056;3.656;2023-04-16T13:34:35;14.00;99.90
27544;DHT22;17996;51.056;3.656;2023-04-16T13:37:00;14.10;99.90
27544;DHT22;17996;51.056;3.656;2023-04-16T13:39:26;14.20;99.90
27544;DHT22;17996;51.056;3.656;2023-04-16T13:41:52;14.20;99.90
27544;DHT22;17996;51.056;3.656;2023-04-16T13:44:17;14.60;99.90
27544;DHT22;17996;51.056;3.656;2023-04-16T13:46:43;14.50;99.90
27544;DHT22;17996;51.056;3.656;2023-04-16T13:49:12;14.50;99.90
27544;DHT22;17996;51.056;3.656;2023-04-16T13:51:37;14.80;99.90
27544;DHT22;17996;51.056;3.656;2023-04-16T13:54:03;15.00;99.90
27544;DHT22;17996;51.056;3.656;2023-04-16T13:56:30;14.70;99.90
27544;DHT22;17996;51.056;3.656;2023-04-16T13:58:55;14.40;99.90
27544;DHT22;17996;51.056;3.656;2023-04-16T14:01:22;14.50;99.90
27544;DHT22;17996;51.056;3.656;2023-04-16T14:03:48;14.90;99.90
27544;DHT22;17996;51.056;3.656;2023-04-16T14:06:14;15.00;99.90
27544;DHT22;17996;51.056;3.656;2023-04-16T14:08:42;15.00;99.90
27544;DHT22;17996;51.056;3.656;2023-04-16T14:11:08;14.80;99.90
27544;DHT22;17996;51.056;3.656;2023-04-16T14:13:34;14.70;99.90
27544;DHT22;17996;51.056;3.656;2023-04-16T14:16:00;14.60;99.90
27544;DHT22;17996;51.056;3.656;2023-04-16T14:18:26;14.80;99.90
27544;DHT22;17996;51.056;3.656;2023-04-16T14:20:53;14.80;99.90
27544;DHT22;17996;51.056;3.656;2023-04-16T14:23:19;14.60;99.90
27544;DHT22;17996;51.056;3.656;2023-04-16T14:25:46;14.70;99.90
27544;DHT22;17996;51.056;3.656;2023-04-16T14:28:12;14.80;99.90
27544;DHT22;17996;51.056;3.656;2023-04-16T14:30:38;15.00;99.90
27544;DHT22;17996;51.056;3.656;2023-04-16T14:33:05;14.80;99.90
27544;DHT22;17996;51.056;3.656;2023-04-16T14:35:33;14.80;99.90
27544;DHT22;17996;51.056;3.656;2023-04-16T14:38:01;14.90;99.90
27544;DHT22;17996;51.056;3.656;2023-04-16T14:40:27;14.80;99.90
27544;DHT22;17996;51.056;3.656;2023-04-16T14:42:59;14.90;99.90
27544;DHT22;17996;51.056;3.656;2023-04-16T14:45:24;14.90;99.90
27544;DHT22;17996;51.056;3.656;2023-04-16T14:47:54;14.90;99.90
27544;DHT22;17996;51.056;3.656;2023-04-16T14:50:19;14.60;99.90
27544;DHT22;17996;51.056;3.656;2023-04-16T14:52:45;14.60;99.90
27544;DHT22;17996;51.056;3.656;2023-04-16T14:55:11;14.80;99.90
27544;DHT22;17996;51.056;3.656;2023-04-16T14:57:37;15.10;99.90
27544;DHT22;17996;51.056;3.656;2023-04-16T15:00:04;15.00;99.90
27544;DHT22;17996;51.056;3.656;2023-04-16T15:02:33;15.00;99.90
27544;DHT22;17996;51.056;3.656;2023-04-16T15:05:00;15.00;99.90
27544;DHT22;17996;51.056;3.656;2023-04-16T15:07:25;14.90;99.90
27544;DHT22;17996;51.056;3.656;2023-04-16T15:09:52;15.00;99.90
27544;DHT22;17996;51.056;3.656;2023-04-16T15:12:18;15.10;99.90
27544;DHT22;17996;51.056;3.656;2023-04-16T15:14:44;15.00;99.90
27544;DHT22;17996;51.056;3.656;2023-04-16T15:17:10;15.10;99.90
27544;DHT22;17996;51.056;3.656;2023-04-16T15:19:36;15.50;99.90
27544;DHT22;17996;51.056;3.656;2023-04-16T15:22:01;16.00;99.90
27544;DHT22;17996;51.056;3.656;2023-04-16T15:24:27;16.20;99.90
27544;DHT22;17996;51.056;3.656;2023-04-16T15:26:52;16.30;99.90
27544;DHT22;17996;51.056;3.656;2023-04-16T15:29:19;16.50;99.90
27544;DHT22;17996;51.056;3.656;2023-04-16T15:31:47;16.90;99.90
27544;DHT22;17996;51.056;3.656;2023-04-16T15:34:14;16.90;99.90
27544;DHT22;17996;51.056;3.656;2023-04-16T15:36:42;16.40;99.90
27544;DHT22;17996;51.056;3.656;2023-04-16T15:39:09;16.20;99.90
27544;DHT22;17996;51.056;3.656;2023-04-16T15:41:35;16.00;99.90
27544;DHT22;17996;51.056;3.656;2023-04-16T15:44:04;15.90;99.90
27544;DHT22;17996;51.056;3.656;2023-04-16T15:46:30;15.60;99.90